createdAt,value
2023-05-22T00:01:12.203Z,99565.69
2023-05-22T00:03:40.741Z,99557.22
2023-05-22T00:06:10.219Z,99566.69
2023-05-22T00:08:37.680Z,99558.19
2023-05-22T00:11:05.026Z,99556.50
2023-05-22T00:13:32.095Z,99557.44
2023-05-22T00:15:59.152Z,99561.75
2023-05-22T00:18:27.085Z,99560.06
2023-05-22T00:20:54.336Z,99549.94
2023-05-22T00:23:21.995Z,99551.63
2023-05-22T00:25:50.664Z,99546.56
2023-05-22T00:28:17.734Z,99547.50
2023-05-22T00:30:45.879Z,99544.19
2023-05-22T00:33:12.964Z,99544.28
2023-05-22T00:35:40.010Z,99556.34
2023-05-22T00:38:08.763Z,99553.09
2023-05-22T00:40:36.178Z,99549.81
2023-05-22T00:43:08.809Z,99548.34
2023-05-22T00:45:35.950Z,99546.78
2023-05-22T00:48:03.106Z,99546.91
2023-05-22T00:50:30.195Z,99543.66
2023-05-22T00:52:57.261Z,99546.22
2023-05-22T00:55:24.322Z,99552.31
2023-05-22T00:57:52.253Z,99544.72
2023-05-22T01:00:19.728Z,99534.50
2023-05-22T01:02:46.847Z,99545.69
2023-05-22T01:05:18.006Z,99542.44
2023-05-22T01:07:46.415Z,99541.56
2023-05-22T01:10:13.512Z,99540.81
2023-05-22T01:13:00.858Z,99543.44
2023-05-22T01:16:01.455Z,99547.00
2023-05-22T01:18:58.697Z,99542.94
2023-05-22T01:21:35.504Z,99540.44
2023-05-22T01:24:26.466Z,99543.00
2023-05-22T01:27:55.838Z,99544.88
2023-05-22T01:30:52.592Z,99549.25
2023-05-22T01:33:25.982Z,99539.81
2023-05-22T01:35:57.735Z,99536.38
2023-05-22T01:38:25.723Z,99543.19
2023-05-22T01:40:53.856Z,99548.25
2023-05-22T01:43:21.294Z,99550.88
2023-05-22T01:45:48.539Z,99550.88
2023-05-22T01:48:16.161Z,99548.31
2023-05-22T01:50:45.260Z,99538.13
2023-05-22T01:53:22.615Z,99538.13
2023-05-22T01:56:05.275Z,99540.75
2023-05-22T01:58:48.272Z,99543.44
2023-05-22T02:01:20.589Z,99546.88
2023-05-22T02:04:09.653Z,99544.50
2023-05-22T02:06:58.847Z,99539.44
2023-05-22T02:09:31.124Z,99545.47
2023-05-22T02:12:00.571Z,99545.50
2023-05-22T02:14:30.250Z,99547.28
2023-05-22T02:16:58.054Z,99550.78
2023-05-22T02:19:27.084Z,99551.72
2023-05-22T02:21:54.473Z,99544.94
2023-05-22T02:24:23.534Z,99546.72
2023-05-22T02:26:51.465Z,99551.00
2023-05-22T02:29:19.153Z,99549.38
2023-05-22T02:31:46.333Z,99546.00
2023-05-22T02:34:13.537Z,99547.75
2023-05-22T02:36:41.153Z,99541.00
2023-05-22T02:39:08.820Z,99547.88
2023-05-22T02:41:35.828Z,99541.16
2023-05-22T02:44:03.275Z,99541.19
2023-05-22T02:46:30.402Z,99548.03
2023-05-22T02:48:57.449Z,99540.41
2023-05-22T02:51:24.579Z,99545.59
2023-05-22T02:53:53.047Z,99543.97
2023-05-22T02:56:21.167Z,99543.16
2023-05-22T02:58:48.595Z,99539.81
2023-05-22T03:01:15.739Z,99539.06
2023-05-22T03:03:43.754Z,99535.66
2023-05-22T03:06:11.018Z,99539.13
2023-05-22T03:08:41.571Z,99534.88
2023-05-22T03:11:09.502Z,99529.81
2023-05-22T03:13:36.829Z,99536.69
2023-05-22T03:16:04.229Z,99534.13
2023-05-22T03:18:32.042Z,99529.13
2023-05-22T03:20:59.179Z,99535.19
2023-05-22T03:23:26.333Z,99536.88
2023-05-22T03:25:54.062Z,99534.38
2023-05-22T03:28:24.707Z,99534.44
2023-05-22T03:30:52.462Z,99535.34
2023-05-22T03:33:27.292Z,99534.56
2023-05-22T03:35:54.952Z,99526.91
2023-05-22T03:38:22.018Z,99534.72
2023-05-22T03:40:49.023Z,99523.66
2023-05-22T03:43:16.109Z,99528.88
2023-05-22T03:45:44.077Z,99530.56
2023-05-22T03:48:12.852Z,99528.06
2023-05-22T03:50:40.398Z,99532.31
2023-05-22T03:53:07.813Z,99539.13
2023-05-22T03:55:34.886Z,99531.34
2023-05-22T03:58:03.273Z,99533.81
2023-05-22T04:00:31.729Z,99529.44
2023-05-22T04:02:59.001Z,99526.75
2023-05-22T04:05:26.542Z,99530.00
2023-05-22T04:07:53.678Z,99533.22
2023-05-22T04:10:23.321Z,99533.03
2023-05-22T04:12:51.029Z,99542.19
2023-05-22T04:15:18.037Z,99535.25
2023-05-22T04:17:47.437Z,99542.81
2023-05-22T04:20:14.537Z,99546.88
2023-05-22T04:22:41.724Z,99548.41
2023-05-22T04:25:10.299Z,99548.28
2023-05-22T04:27:37.943Z,99558.44
2023-05-22T04:30:07.508Z,99554.00
2023-05-22T04:32:36.304Z,99556.41
2023-05-22T04:35:03.799Z,99557.19
2023-05-22T04:37:31.666Z,99563.81
2023-05-22T04:40:03.172Z,99559.50
2023-05-22T04:42:30.854Z,99566.13
2023-05-22T04:44:58.178Z,99572.84
2023-05-22T04:47:25.436Z,99569.34
2023-05-22T04:49:52.473Z,99568.44
2023-05-22T04:52:19.509Z,99566.69
2023-05-22T04:55:06.950Z,99563.19
2023-05-22T04:57:52.798Z,99572.50
2023-05-22T05:00:38.552Z,99562.25
2023-05-22T05:03:08.093Z,99566.38
2023-05-22T05:05:35.494Z,99562.00
2023-05-22T05:08:02.713Z,99561.13
2023-05-22T05:10:29.792Z,99567.06
2023-05-22T05:12:57.006Z,99570.25
2023-05-22T05:15:24.108Z,99567.50
2023-05-22T05:17:51.479Z,99569.09
2023-05-22T05:20:18.972Z,99574.06
2023-05-22T05:22:46.334Z,99568.00
2023-05-22T05:25:14.735Z,99571.28
2023-05-22T05:27:42.593Z,99571.16
2023-05-22T05:30:10.723Z,99563.34
2023-05-22T05:32:48.146Z,99567.38
2023-05-22T05:35:38.391Z,99563.84
2023-05-22T05:38:09.511Z,99573.06
2023-05-22T05:40:39.372Z,99574.59
2023-05-22T05:43:09.294Z,99574.41
2023-05-22T05:45:39.642Z,99574.31
2023-05-22T05:48:07.698Z,99575.81
2023-05-22T05:50:54.716Z,99578.97
2023-05-22T05:53:22.431Z,99580.47
2023-05-22T05:55:55.129Z,99579.44
2023-05-22T05:58:22.765Z,99584.31
2023-05-22T06:01:08.788Z,99590.19
2023-05-22T06:03:37.360Z,99584.03
2023-05-22T06:06:14.090Z,99582.25
2023-05-22T06:09:06.387Z,99591.63
2023-05-22T06:11:37.364Z,99588.88
2023-05-22T06:14:07.381Z,99591.22
2023-05-22T06:16:34.827Z,99595.38
2023-05-22T06:19:02.448Z,99591.72
2023-05-22T06:21:29.525Z,99589.72
2023-05-22T06:23:57.275Z,99595.44
2023-05-22T06:26:25.756Z,99586.59
2023-05-22T06:28:54.129Z,99597.53
2023-05-22T06:31:22.902Z,99592.22
2023-05-22T06:33:51.970Z,99591.91
2023-05-22T06:36:20.651Z,99591.47
2023-05-22T06:38:49.485Z,99585.88
2023-05-22T06:41:36.483Z,99589.66
2023-05-22T06:44:06.379Z,99601.88
2023-05-22T06:46:38.238Z,99603.91
2023-05-22T06:49:06.213Z,99600.84
2023-05-22T06:51:36.941Z,99599.56
2023-05-22T06:54:08.280Z,99595.88
2023-05-22T06:56:36.821Z,99596.50
2023-05-22T06:59:07.280Z,99602.16
2023-05-22T07:02:00.474Z,99593.28
2023-05-22T07:04:36.424Z,99601.44
2023-05-22T07:07:09.331Z,99602.50
2023-05-22T07:09:36.326Z,99613.69
2023-05-22T07:12:05.699Z,99608.38
2023-05-22T07:14:33.558Z,99611.06
2023-05-22T07:17:00.752Z,99612.75
2023-05-22T07:19:34.053Z,99618.72
2023-05-22T07:22:03.725Z,99618.84
2023-05-22T07:24:33.253Z,99622.69
2023-05-22T07:27:01.190Z,99622.25
2023-05-22T07:29:28.212Z,99623.66
2023-05-22T07:31:55.857Z,99627.56
2023-05-22T07:34:31.805Z,99626.19
2023-05-22T07:37:00.853Z,99630.59
2023-05-22T07:39:27.947Z,99628.28
2023-05-22T07:41:57.515Z,99627.63
2023-05-22T07:44:26.660Z,99623.53
2023-05-22T07:46:55.439Z,99629.66
2023-05-22T07:49:24.580Z,99628.38
2023-05-22T07:51:52.160Z,99623.00
2023-05-22T07:54:20.903Z,99631.41
2023-05-22T07:56:52.277Z,99628.97
2023-05-22T07:59:21.980Z,99636.78
2023-05-22T08:01:50.470Z,99632.47
2023-05-22T08:04:17.931Z,99632.72
2023-05-22T08:06:45.127Z,99636.59
2023-05-22T08:09:12.178Z,99636.91
2023-05-22T08:11:42.080Z,99630.34
2023-05-22T08:14:09.733Z,99625.91
2023-05-22T08:16:36.897Z,99628.53
2023-05-22T08:19:06.238Z,99635.75
2023-05-22T08:21:34.596Z,99641.41
2023-05-22T08:24:02.010Z,99637.13
2023-05-22T08:26:31.376Z,99638.16
2023-05-22T08:28:59.872Z,99639.38
2023-05-22T08:31:29.255Z,99639.06
2023-05-22T08:34:02.415Z,99646.75
2023-05-22T08:36:33.865Z,99647.38
2023-05-22T08:39:01.482Z,99648.84
2023-05-22T08:41:29.626Z,99654.47
2023-05-22T08:43:56.978Z,99646.31
2023-05-22T08:46:29.091Z,99645.22
2023-05-22T08:48:58.609Z,99645.69
2023-05-22T08:51:32.991Z,99652.59
2023-05-22T08:54:05.814Z,99650.19
2023-05-22T08:56:35.438Z,99651.19
2023-05-22T08:59:07.544Z,99658.97
2023-05-22T09:01:35.005Z,99659.69
2023-05-22T09:04:03.572Z,99665.53
2023-05-22T09:06:31.712Z,99670.47
2023-05-22T09:09:03.791Z,99664.88
2023-05-22T09:11:31.225Z,99658.41
2023-05-22T09:14:11.745Z,99657.78
2023-05-22T09:17:05.527Z,99660.94
2023-05-22T09:19:32.807Z,99661.06
2023-05-22T09:22:06.391Z,99654.34
2023-05-22T09:24:42.468Z,99659.28
2023-05-22T09:27:11.005Z,99659.59
2023-05-22T09:29:55.264Z,99659.59
2023-05-22T09:32:22.561Z,99659.94
2023-05-22T09:34:51.041Z,99664.66
2023-05-22T09:37:18.441Z,99655.84
2023-05-22T09:39:48.171Z,99673.09
2023-05-22T09:42:17.456Z,99661.03
2023-05-22T09:44:49.745Z,99670.59
2023-05-22T09:47:17.176Z,99667.91
2023-05-22T09:49:45.825Z,99667.25
2023-05-22T09:52:12.955Z,99662.28
2023-05-22T09:54:55.222Z,99673.47
2023-05-22T09:57:26.568Z,99665.47
2023-05-22T09:59:58.852Z,99663.34
2023-05-22T10:02:28.750Z,99667.09
2023-05-22T10:04:57.178Z,99666.94
2023-05-22T10:07:36.893Z,99672.34
2023-05-22T10:10:12.078Z,99667.41
2023-05-22T10:12:52.292Z,99677.66
2023-05-22T10:15:19.860Z,99670.78
2023-05-22T10:17:48.745Z,99671.06
2023-05-22T10:20:19.932Z,99671.22
2023-05-22T10:22:50.954Z,99670.19
2023-05-22T10:25:18.585Z,99668.88
2023-05-22T10:27:46.132Z,99673.84
2023-05-22T10:30:42.616Z,99667.47
2023-05-22T10:33:50.330Z,99669.59
2023-05-22T10:36:43.664Z,99671.91
2023-05-22T10:39:24.331Z,99670.25
2023-05-22T10:41:51.533Z,99677.66
2023-05-22T10:44:18.728Z,99673.13
2023-05-22T10:46:52.762Z,99661.69
2023-05-22T10:49:23.937Z,99658.72
2023-05-22T10:51:57.029Z,99667.06
2023-05-22T10:54:44.069Z,99661.63
2023-05-22T10:57:18.677Z,99668.63
2023-05-22T10:59:48.523Z,99658.06
2023-05-22T11:02:31.388Z,99654.28
2023-05-22T11:05:17.128Z,99654.16
2023-05-22T11:07:44.112Z,99654.31
2023-05-22T11:10:11.424Z,99662.56
2023-05-22T11:12:38.458Z,99669.78
2023-05-22T11:15:07.745Z,99668.22
2023-05-22T11:17:42.908Z,99662.13
2023-05-22T11:20:24.818Z,99658.06
2023-05-22T11:23:01.302Z,99659.91
2023-05-22T11:25:29.968Z,99666.84
2023-05-22T11:27:58.427Z,99665.25
2023-05-22T11:30:27.913Z,99663.41
2023-05-22T11:32:54.963Z,99661.44
2023-05-22T11:35:22.804Z,99658.03
2023-05-22T11:37:52.952Z,99666.16
2023-05-22T11:40:24.421Z,99658.19
2023-05-22T11:42:53.193Z,99661.94
2023-05-22T11:45:20.518Z,99650.31
2023-05-22T11:47:48.736Z,99654.91
2023-05-22T11:50:22.673Z,99654.19
2023-05-22T11:52:59.332Z,99651.81
2023-05-22T11:55:26.475Z,99652.13
2023-05-22T11:57:56.426Z,99653.78
2023-05-22T12:00:24.470Z,99657.00
2023-05-22T12:02:51.518Z,99652.38
2023-05-22T12:05:21.670Z,99657.50
2023-05-22T12:07:48.780Z,99660.00
2023-05-22T12:10:15.910Z,99650.75
2023-05-22T12:12:45.134Z,99651.88
2023-05-22T12:15:12.699Z,99652.97
2023-05-22T12:17:40.275Z,99651.19
2023-05-22T12:20:07.861Z,99658.66
2023-05-22T12:22:42.872Z,99655.84
2023-05-22T12:25:19.951Z,99652.09
2023-05-22T12:27:47.768Z,99649.75
2023-05-22T12:30:16.594Z,99656.59
2023-05-22T12:32:51.301Z,99649.69
2023-05-22T12:35:19.501Z,99656.34
2023-05-22T12:37:51.130Z,99659.66
2023-05-22T12:40:19.132Z,99661.53
2023-05-22T12:42:47.657Z,99655.53
2023-05-22T12:45:14.965Z,99656.34
2023-05-22T12:47:42.028Z,99653.41
2023-05-22T12:50:09.521Z,99655.22
2023-05-22T12:52:36.621Z,99643.41
2023-05-22T12:55:04.547Z,99650.03
2023-05-22T12:57:31.943Z,99634.91
2023-05-22T12:59:58.932Z,99643.09
2023-05-22T13:02:25.971Z,99630.22
2023-05-22T13:04:53.018Z,99635.72
2023-05-22T13:07:20.082Z,99636.44
2023-05-22T13:09:47.061Z,99626.59
2023-05-22T13:12:14.205Z,99627.81
2023-05-22T13:14:41.286Z,99622.00
2023-05-22T13:17:08.413Z,99623.44
2023-05-22T13:19:35.465Z,99627.25
2023-05-22T13:22:02.634Z,99619.06
2023-05-22T13:24:30.002Z,99615.38
2023-05-22T13:26:57.001Z,99617.53
2023-05-22T13:29:23.931Z,99617.41
2023-05-22T13:31:51.301Z,99624.63
2023-05-22T13:34:18.358Z,99624.03
2023-05-22T13:36:45.750Z,99623.22
2023-05-22T13:39:12.672Z,99622.59
2023-05-22T13:41:39.657Z,99625.47
2023-05-22T13:44:06.653Z,99627.47
2023-05-22T13:46:33.769Z,99618.34
2023-05-22T13:49:00.806Z,99630.44
2023-05-22T13:51:27.778Z,99628.66
2023-05-22T13:53:55.143Z,99622.63
2023-05-22T13:56:23.484Z,99628.03
2023-05-22T13:58:50.759Z,99634.44
2023-05-22T14:01:17.816Z,99631.34
2023-05-22T14:03:44.888Z,99642.34
2023-05-22T14:06:12.320Z,99642.88
2023-05-22T14:08:39.293Z,99645.13
2023-05-22T14:11:06.360Z,99644.44
2023-05-22T14:13:33.368Z,99651.31
2023-05-22T14:16:00.357Z,99656.41
2023-05-22T14:18:27.693Z,99646.47
2023-05-22T14:20:54.776Z,99658.22
2023-05-22T14:23:21.741Z,99653.97
2023-05-22T14:25:48.732Z,99652.06
2023-05-22T14:28:16.535Z,99648.09
2023-05-22T14:30:43.613Z,99640.16
2023-05-22T14:33:11.353Z,99649.25
2023-05-22T14:35:38.639Z,99643.91
2023-05-22T14:38:05.845Z,99650.50
2023-05-22T14:40:33.267Z,99642.31
2023-05-22T14:43:00.358Z,99643.47
2023-05-22T14:45:27.329Z,99634.22
2023-05-22T14:47:54.880Z,99633.03
2023-05-22T14:50:22.089Z,99630.13
2023-05-22T14:52:49.746Z,99630.56
2023-05-22T14:55:17.891Z,99631.59
2023-05-22T14:57:45.124Z,99626.63
2023-05-22T15:00:13.155Z,99625.16
2023-05-22T15:02:40.985Z,99629.38
2023-05-22T15:05:09.539Z,99629.78
2023-05-22T15:10:07.942Z,99614.50
2023-05-22T15:12:34.921Z,99616.81
2023-05-22T15:15:02.032Z,99620.06
2023-05-22T15:17:29.614Z,99627.38
2023-05-22T15:19:57.424Z,99613.84
2023-05-22T15:22:24.537Z,99610.72
2023-05-22T15:25:12.168Z,99603.16
2023-05-22T15:27:39.901Z,99596.47
2023-05-22T15:30:09.603Z,99592.44
2023-05-22T15:32:37.827Z,99590.16
2023-05-22T15:35:06.733Z,99596.72
2023-05-22T15:37:34.016Z,99590.19
2023-05-22T15:40:03.945Z,99595.00
2023-05-22T15:42:31.594Z,99598.84
2023-05-22T15:45:00.175Z,99603.31
2023-05-22T15:47:27.437Z,99601.75
2023-05-22T15:49:54.490Z,99595.94
2023-05-22T15:52:24.191Z,99596.38
2023-05-22T15:54:51.177Z,99590.63
2023-05-22T15:57:18.175Z,99588.44
2023-05-22T15:59:47.331Z,99590.50
2023-05-22T16:02:14.571Z,99591.66
2023-05-22T16:04:41.643Z,99593.53
2023-05-22T16:07:08.650Z,99593.75
2023-05-22T16:09:36.104Z,99587.81
2023-05-22T16:12:03.895Z,99584.50
2023-05-22T16:14:31.484Z,99588.75
2023-05-22T16:16:58.474Z,99591.66
2023-05-22T16:19:25.593Z,99589.97
2023-05-22T16:21:52.597Z,99596.97
2023-05-22T16:24:19.615Z,99595.19
2023-05-22T16:26:46.543Z,99588.13
2023-05-22T16:29:13.924Z,99595.81
2023-05-22T16:31:40.953Z,99593.97
2023-05-22T16:34:07.934Z,99600.72
2023-05-22T16:36:34.955Z,99602.69
2023-05-22T16:39:01.951Z,99600.59
2023-05-22T16:41:28.964Z,99602.03
2023-05-22T16:43:55.929Z,99607.00
2023-05-22T16:46:22.938Z,99607.78
2023-05-22T16:48:50.429Z,99611.81
2023-05-22T16:51:17.513Z,99607.13
2023-05-22T16:53:46.490Z,99611.03
2023-05-22T16:56:14.487Z,99610.72
2023-05-22T16:58:41.463Z,99608.59
2023-05-22T17:01:08.803Z,99608.28
2023-05-22T17:03:35.954Z,99613.16
2023-05-22T17:06:03.572Z,99609.41
2023-05-22T17:08:32.092Z,99611.63
2023-05-22T17:10:59.159Z,99618.13
2023-05-22T17:13:26.344Z,99612.78
2023-05-22T17:15:53.400Z,99623.53
2023-05-22T17:18:21.233Z,99616.84
2023-05-22T17:20:53.764Z,99623.00
2023-05-22T17:23:20.805Z,99624.75
2023-05-22T17:25:48.107Z,99629.09
2023-05-22T17:28:15.452Z,99618.94
2023-05-22T17:30:44.281Z,99621.69
2023-05-22T17:33:12.243Z,99624.47
2023-05-22T17:38:08.394Z,99631.09
2023-05-22T17:40:43.724Z,99640.09
2023-05-22T17:43:12.418Z,99646.44
2023-05-22T17:45:40.241Z,99645.81
2023-05-22T17:48:08.164Z,99657.19
2023-05-22T17:50:35.379Z,99653.09
2023-05-22T17:53:02.700Z,99659.38
2023-05-22T17:55:29.769Z,99651.91
2023-05-22T17:57:57.223Z,99658.25
2023-05-22T18:00:24.312Z,99662.03
2023-05-22T18:02:51.501Z,99659.91
2023-05-22T18:05:18.667Z,99662.00
2023-05-22T18:07:45.838Z,99674.53
2023-05-22T18:10:13.096Z,99673.28
2023-05-22T18:12:40.284Z,99675.31
2023-05-22T18:15:10.556Z,99665.34
2023-05-22T18:17:38.679Z,99670.84
2023-05-22T18:20:08.023Z,99660.91
2023-05-22T18:22:38.162Z,99661.34
2023-05-22T18:25:06.886Z,99655.88
2023-05-22T18:27:35.354Z,99663.38
2023-05-22T18:30:05.052Z,99665.75
2023-05-22T18:32:34.074Z,99670.69
2023-05-22T18:35:03.721Z,99662.56
2023-05-22T18:37:32.135Z,99677.75
2023-05-22T18:39:59.443Z,99683.31
2023-05-22T18:42:26.510Z,99671.53
2023-05-22T18:44:53.755Z,99669.22
2023-05-22T18:47:20.843Z,99678.94
2023-05-22T18:49:48.223Z,99670.56
2023-05-22T18:52:15.348Z,99682.88
2023-05-22T18:54:42.417Z,99683.13
2023-05-22T18:57:09.584Z,99690.28
2023-05-22T18:59:37.622Z,99693.91
2023-05-22T19:02:05.266Z,99701.91
2023-05-22T19:04:32.419Z,99696.03
2023-05-22T19:07:00.238Z,99695.44
2023-05-22T19:09:27.503Z,99707.75
2023-05-22T19:11:54.614Z,99720.00
2023-05-22T19:14:21.832Z,99717.53
2023-05-22T19:16:48.995Z,99724.63
2023-05-22T19:19:16.253Z,99722.25
2023-05-22T19:21:43.389Z,99732.78
2023-05-22T19:24:10.610Z,99728.69
2023-05-22T19:26:37.757Z,99729.75
2023-05-22T19:29:04.941Z,99726.56
2023-05-22T19:31:32.198Z,99731.06
2023-05-22T19:33:59.446Z,99738.13
2023-05-22T19:36:26.767Z,99732.34
2023-05-22T19:38:53.992Z,99745.03
2023-05-22T19:41:22.882Z,99743.72
2023-05-22T19:43:51.715Z,99744.09
2023-05-22T19:46:18.923Z,99753.16
2023-05-22T19:48:46.160Z,99756.19
2023-05-22T19:51:13.413Z,99755.81
2023-05-22T19:53:41.651Z,99763.00
2023-05-22T19:56:08.744Z,99767.66
2023-05-22T19:58:35.877Z,99775.56
2023-05-22T20:01:02.955Z,99773.25
2023-05-22T20:03:30.157Z,99783.06
2023-05-22T20:05:57.307Z,99778.31
2023-05-22T20:08:25.456Z,99780.47
2023-05-22T20:10:52.929Z,99786.78
2023-05-22T20:13:20.138Z,99784.53
2023-05-22T20:15:47.788Z,99797.69
2023-05-22T20:18:15.201Z,99794.50
2023-05-22T20:20:42.362Z,99797.28
2023-05-22T20:23:09.514Z,99803.53
2023-05-22T20:25:37.541Z,99795.06
2023-05-22T20:28:05.150Z,99802.13
2023-05-22T20:30:32.812Z,99806.63
2023-05-22T20:32:59.986Z,99807.66
2023-05-22T20:35:27.268Z,99813.03
2023-05-22T20:37:54.411Z,99816.72
2023-05-22T20:40:21.741Z,99818.63
2023-05-22T20:42:49.112Z,99823.19
2023-05-22T20:45:16.482Z,99819.16
2023-05-22T20:47:43.939Z,99825.44
2023-05-22T20:50:11.750Z,99826.50
2023-05-22T20:52:39.094Z,99819.88
2023-05-22T20:55:07.317Z,99825.22
2023-05-22T20:57:34.754Z,99827.19
2023-05-22T21:00:02.541Z,99826.47
2023-05-22T21:02:30.963Z,99829.06
2023-05-22T21:04:58.308Z,99831.72
2023-05-22T21:07:25.362Z,99825.75
2023-05-22T21:09:52.401Z,99831.84
2023-05-22T21:12:19.668Z,99839.69
2023-05-22T21:14:47.025Z,99838.09
2023-05-22T21:17:14.158Z,99835.75
2023-05-22T21:19:41.239Z,99837.75
2023-05-22T21:22:09.361Z,99834.63
2023-05-22T21:24:36.377Z,99836.66
2023-05-22T21:27:03.596Z,99825.75
2023-05-22T21:29:30.745Z,99826.97
2023-05-22T21:31:57.840Z,99828.06
2023-05-22T21:34:25.161Z,99830.88
2023-05-22T21:36:52.137Z,99830.28
2023-05-22T21:39:19.173Z,99836.53
2023-05-22T21:41:47.555Z,99838.47
2023-05-22T21:44:16.157Z,99834.47
2023-05-22T21:46:43.231Z,99831.28
2023-05-22T21:49:10.352Z,99839.22
2023-05-22T21:51:37.481Z,99846.22
2023-05-22T21:54:04.793Z,99844.78
2023-05-22T21:56:31.849Z,99840.81
2023-05-22T21:58:59.177Z,99843.50
2023-05-22T22:01:26.349Z,99841.19
2023-05-22T22:03:53.745Z,99850.75
2023-05-22T22:06:20.989Z,99852.56
2023-05-22T22:08:48.055Z,99865.56
2023-05-22T22:11:15.107Z,99860.66
2023-05-22T22:13:42.214Z,99872.78
2023-05-22T22:16:09.367Z,99872.94
2023-05-22T22:18:37.001Z,99872.25
2023-05-22T22:21:04.555Z,99865.56
2023-05-22T22:23:31.690Z,99870.00
2023-05-22T22:25:58.812Z,99866.78
2023-05-22T22:28:25.892Z,99867.69
2023-05-22T22:30:55.124Z,99876.31
2023-05-22T22:33:22.815Z,99871.34
2023-05-22T22:35:50.408Z,99871.44
2023-05-22T22:38:17.974Z,99872.38
2023-05-22T22:40:45.136Z,99875.06
2023-05-22T22:43:12.286Z,99877.75
2023-05-22T22:45:42.346Z,99885.59
2023-05-22T22:48:09.543Z,99890.81
2023-05-22T22:50:37.238Z,99896.00
2023-05-22T22:53:05.366Z,99894.41
2023-05-22T22:55:32.635Z,99895.31
2023-05-22T22:58:01.902Z,99894.59
2023-05-22T23:00:29.171Z,99898.03
2023-05-22T23:02:56.364Z,99904.75
2023-05-22T23:05:23.540Z,99908.16
2023-05-22T23:07:50.856Z,99914.91
2023-05-22T23:10:18.178Z,99904.59
2023-05-22T23:12:48.156Z,99919.88
2023-05-22T23:15:15.818Z,99911.38
2023-05-22T23:17:42.914Z,99916.50
2023-05-22T23:20:11.133Z,99908.91
2023-05-22T23:22:38.432Z,99906.41
2023-05-22T23:25:06.389Z,99915.00
2023-05-22T23:27:33.449Z,99916.00
2023-05-22T23:30:00.665Z,99909.25
2023-05-22T23:32:28.540Z,99915.34
2023-05-22T23:34:55.744Z,99913.69
2023-05-22T23:37:22.933Z,99917.28
2023-05-22T23:39:50.085Z,99932.69
2023-05-22T23:42:17.214Z,99931.06
2023-05-22T23:44:44.258Z,99938.75
2023-05-22T23:47:11.368Z,99930.22
2023-05-22T23:49:38.479Z,99939.50
2023-05-22T23:52:05.585Z,99940.22
2023-05-22T23:54:32.609Z,99926.50
2023-05-22T23:56:59.619Z,99925.50
2023-05-22T23:59:26.653Z,99928.78
